Portada
METAR-TAF:

METAR-TAF

Aeropuertos :

Aeropuerto de Roma-Fiumicino

Roma-Fiumicino, Italia

latitud: 41-48N, longitud: 012-14E, altitud: 2 m

Observación

El informe se hizo hace 33 minutos, a las 02:50 UTC
Viento 2 kt del norte
Temperatura 12°C
Humedad 94%
Presión 1015 hPa
Visibilidad 10 km o más
sin nubes por debajo de 1500 m y sin presencia de cumulonimbus.

METAR: LIRF 010250Z 36002KT CAVOK 12/11 Q1015 NOSIG

Hora: 05:23 (03:23 UTC)

Pronóstico

El informe se hizo hace 4 horas y 23 minutos, a las 23:00 UTC
Pronóstico válido del 01 a las 00 UTC al 02 a las 06 UTC
Viento 8 kt del norte-noreste
Visibilidad 10 km o más
Escasas nubes a una altura de 5000 ft
Evolucionando progresivamente
del 01 a las 09 UTC al 01 a las 11 UTC
Viento 12 kt del oeste-suroeste
Evolucionando progresivamente
del 01 a las 18 UTC al 01 a las 20 UTC
Viento 5 kt con dirección variable

TAF: LIRF 312300Z 0100/0206 02008KT 9999 FEW050 BECMG 0109/0111 25012KT BECMG 0118/0120 VRB05KT

Observaciones y pronósticos meteorológicos de más de 4000 aeropuertos (mensajes METAR y TAF).

Los puntos amarillos y rojos representan las estaciones disponibles.

Ponga el ratón en el punto deseado para ver el nombre de la estación.

Haga clic para ver las observaciones y los pronósticos meteorológicos.

Para cambiar el mapa : haga clic en los botones verdes con una cruz de color negro para hacer un zoom, en el botón verde con un guión para alejar o en las flechas verdes para mapas adyacentes.


METAR-TAF: